createdAt,value
2023-01-10T00:00:59.170Z,0
2023-01-10T00:02:01.921Z,0
2023-01-10T00:03:05.099Z,0
2023-01-10T00:04:08.456Z,0
2023-01-10T00:05:11.603Z,0
2023-01-10T00:06:15.473Z,0
2023-01-10T00:07:18.832Z,0
2023-01-10T00:08:21.875Z,0
2023-01-10T00:09:25.525Z,0
2023-01-10T00:10:27.994Z,0
2023-01-10T00:11:31.489Z,0
2023-01-10T00:12:34.495Z,0
2023-01-10T00:13:37.597Z,0
2023-01-10T00:14:40.107Z,0
2023-01-10T00:15:58.181Z,0
2023-01-10T00:17:01.073Z,0
2023-01-10T00:18:04.220Z,0
2023-01-10T00:19:07.592Z,0
2023-01-10T00:20:10.121Z,0
2023-01-10T00:21:13.571Z,0
2023-01-10T00:22:17.333Z,0
2023-01-10T00:23:19.889Z,0
2023-01-10T00:24:23.287Z,0
2023-01-10T00:25:26.710Z,0
2023-01-10T00:26:30.107Z,0
2023-01-10T00:27:32.834Z,0
2023-01-10T00:28:35.637Z,0
2023-01-10T00:29:38.648Z,0
2023-01-10T00:30:41.379Z,0
2023-01-10T00:31:43.815Z,0
2023-01-10T00:32:47.162Z,0
2023-01-10T00:33:50.228Z,0
2023-01-10T00:34:53.664Z,0
2023-01-10T00:35:56.439Z,0
2023-01-10T00:36:59.727Z,0
2023-01-10T00:38:03.829Z,0
2023-01-10T00:39:06.824Z,0
2023-01-10T00:40:10.661Z,0
2023-01-10T00:41:13.988Z,0
2023-01-10T00:42:17.073Z,0
2023-01-10T00:43:20.893Z,0
2023-01-10T00:44:24.250Z,0
2023-01-10T00:45:27.895Z,0
2023-01-10T00:46:30.900Z,0
2023-01-10T00:47:35.410Z,0
2023-01-10T00:48:38.431Z,0
2023-01-10T00:49:41.233Z,0
2023-01-10T00:50:44.967Z,0
2023-01-10T00:51:47.570Z,0
2023-01-10T00:52:50.685Z,0
2023-01-10T00:53:54.237Z,0
2023-01-10T00:54:57.978Z,0
2023-01-10T00:56:00.407Z,0
2023-01-10T00:57:03.124Z,0
2023-01-10T00:58:06.859Z,0
2023-01-10T00:59:10.033Z,0
2023-01-10T01:00:13.041Z,0
2023-01-10T01:01:16.321Z,0
2023-01-10T01:02:20.322Z,0
2023-01-10T01:03:23.883Z,0
2023-01-10T01:04:27.274Z,0
2023-01-10T01:05:30.356Z,0
2023-01-10T01:06:33.371Z,0
2023-01-10T01:07:36.753Z,0
2023-01-10T01:08:40.556Z,0
2023-01-10T01:09:44.311Z,0
2023-01-10T01:10:47.489Z,0
2023-01-10T01:11:49.931Z,0
2023-01-10T01:12:53.291Z,0
2023-01-10T01:13:56.750Z,0
2023-01-10T01:14:59.772Z,0
2023-01-10T01:16:03.023Z,0
2023-01-10T01:17:06.348Z,0
2023-01-10T01:18:08.848Z,0
2023-01-10T01:19:11.913Z,0
2023-01-10T01:20:15.096Z,0
2023-01-10T01:21:17.591Z,0
2023-01-10T01:22:20.568Z,0
2023-01-10T01:23:23.735Z,0
2023-01-10T01:24:27.447Z,0
2023-01-10T01:25:31.551Z,0
2023-01-10T01:26:34.999Z,0
2023-01-10T01:27:37.494Z,0
2023-01-10T01:28:40.579Z,0
2023-01-10T01:29:43.743Z,0
2023-01-10T01:30:46.347Z,0
2023-01-10T01:31:51.087Z,0
2023-01-10T01:32:54.838Z,0
2023-01-10T01:33:58.694Z,0
2023-01-10T01:35:02.056Z,0
2023-01-10T01:36:05.141Z,0
2023-01-10T01:37:07.657Z,0
2023-01-10T01:38:10.480Z,0
2023-01-10T01:39:13.805Z,0
2023-01-10T01:40:16.596Z,0
2023-01-10T01:41:20.646Z,0
2023-01-10T01:42:24.022Z,0
2023-01-10T01:43:27.455Z,0
2023-01-10T01:44:30.572Z,0
2023-01-10T01:45:33.493Z,0
2023-01-10T01:46:37.645Z,0
2023-01-10T01:47:40.974Z,0
2023-01-10T01:48:43.458Z,0
2023-01-10T01:49:46.501Z,0
2023-01-10T01:50:49.685Z,0
2023-01-10T01:51:52.781Z,0
2023-01-10T01:52:55.574Z,0
2023-01-10T01:53:57.803Z,0
2023-01-10T01:55:00.811Z,0
2023-01-10T01:56:04.101Z,0
2023-01-10T01:57:08.136Z,0
2023-01-10T01:58:10.604Z,0
2023-01-10T01:59:13.383Z,0
2023-01-10T02:00:16.468Z,0
2023-01-10T02:01:19.957Z,0
2023-01-10T02:02:24.242Z,0
2023-01-10T02:03:27.334Z,0
2023-01-10T02:04:30.769Z,0
2023-01-10T02:05:34.320Z,0
2023-01-10T02:06:36.812Z,0
2023-01-10T02:07:40.471Z,0
2023-01-10T02:08:43.460Z,0
2023-01-10T02:09:46.904Z,0
2023-01-10T02:10:50.275Z,0
2023-01-10T02:11:53.667Z,0
2023-01-10T02:12:57.465Z,0
2023-01-10T02:14:01.245Z,0
2023-01-10T02:15:04.383Z,0
2023-01-10T02:16:07.471Z,0
2023-01-10T02:17:11.143Z,0
2023-01-10T02:18:14.235Z,0
2023-01-10T02:19:17.845Z,0
2023-01-10T02:20:20.952Z,0
2023-01-10T02:21:24.073Z,0
2023-01-10T02:22:26.875Z,0
2023-01-10T02:23:30.334Z,0
2023-01-10T02:24:32.567Z,0
2023-01-10T02:25:35.597Z,0
2023-01-10T02:26:38.971Z,0
2023-01-10T02:27:42.167Z,0
2023-01-10T02:28:45.921Z,0
2023-01-10T02:29:49.691Z,0
2023-01-10T02:30:52.718Z,0
2023-01-10T02:31:55.705Z,0
2023-01-10T02:33:04.978Z,0
2023-01-10T02:34:08.607Z,0
2023-01-10T02:35:11.509Z,0
2023-01-10T02:36:14.506Z,0
2023-01-10T02:37:17.678Z,0
2023-01-10T02:38:20.148Z,0
2023-01-10T02:39:23.241Z,0
2023-01-10T02:40:25.994Z,0
2023-01-10T02:41:29.049Z,0
2023-01-10T02:42:33.077Z,0
2023-01-10T02:43:36.426Z,0
2023-01-10T02:44:40.226Z,0
2023-01-10T02:45:43.612Z,0
2023-01-10T02:46:46.746Z,0
2023-01-10T02:47:50.939Z,0
2023-01-10T02:48:54.032Z,0
2023-01-10T02:49:58.085Z,0
2023-01-10T02:51:00.828Z,0
2023-01-10T02:52:04.339Z,0
2023-01-10T02:53:06.795Z,0
2023-01-10T02:54:10.161Z,0
2023-01-10T02:55:12.603Z,0
2023-01-10T02:56:15.866Z,0
2023-01-10T02:57:18.943Z,0
2023-01-10T02:58:22.292Z,0
2023-01-10T02:59:25.777Z,0
2023-01-10T03:00:29.307Z,0
2023-01-10T03:01:33.138Z,0
2023-01-10T03:02:36.696Z,0
2023-01-10T03:03:40.090Z,0
2023-01-10T03:04:42.927Z,0
2023-01-10T03:05:46.321Z,0
2023-01-10T03:06:50.042Z,0
2023-01-10T03:07:53.404Z,0
2023-01-10T03:08:56.671Z,0
2023-01-10T03:09:59.652Z,0
2023-01-10T03:11:03.044Z,0
2023-01-10T03:12:05.559Z,0
2023-01-10T03:13:08.276Z,0
2023-01-10T03:14:11.719Z,0
2023-01-10T03:15:15.146Z,0
2023-01-10T03:16:18.721Z,0
2023-01-10T03:17:22.141Z,0
2023-01-10T03:18:25.799Z,0
2023-01-10T03:19:29.271Z,0
2023-01-10T03:20:32.001Z,0
2023-01-10T03:21:35.019Z,0
2023-01-10T03:22:38.503Z,0
2023-01-10T03:23:41.785Z,0
2023-01-10T03:24:44.616Z,0
2023-01-10T03:25:47.949Z,0
2023-01-10T03:26:50.118Z,0
2023-01-10T03:27:53.562Z,0
2023-01-10T03:28:56.918Z,0
2023-01-10T03:30:00.362Z,0
2023-01-10T03:31:03.587Z,0
2023-01-10T03:32:07.391Z,0
2023-01-10T03:33:10.234Z,0
2023-01-10T03:34:13.639Z,0
2023-01-10T03:35:16.446Z,0
2023-01-10T03:36:19.828Z,0
2023-01-10T03:37:23.139Z,0
2023-01-10T03:38:26.462Z,0
2023-01-10T03:39:28.769Z,0
2023-01-10T03:40:31.763Z,0
2023-01-10T03:41:34.620Z,0
2023-01-10T03:42:37.353Z,0
2023-01-10T03:43:40.089Z,0
2023-01-10T03:44:43.228Z,0
2023-01-10T03:45:47.273Z,0
2023-01-10T03:46:50.427Z,0
2023-01-10T03:47:55.111Z,0
2023-01-10T03:48:58.856Z,0
2023-01-10T03:50:01.867Z,0
2023-01-10T03:51:04.945Z,0
2023-01-10T03:52:08.418Z,0
2023-01-10T03:53:12.053Z,0
2023-01-10T03:54:15.119Z,0
2023-01-10T03:55:17.858Z,0
2023-01-10T03:56:21.357Z,0
2023-01-10T03:57:24.434Z,0
2023-01-10T03:58:27.767Z,0
2023-01-10T03:59:31.527Z,0
2023-01-10T04:00:34.347Z,0
2023-01-10T04:01:37.614Z,0
2023-01-10T04:02:40.456Z,0
2023-01-10T04:03:44.243Z,0
2023-01-10T04:04:47.821Z,0
2023-01-10T04:05:50.518Z,0
2023-01-10T04:06:53.909Z,0
2023-01-10T04:07:57.056Z,0
2023-01-10T04:09:00.797Z,0
2023-01-10T04:10:03.672Z,0
2023-01-10T04:11:06.950Z,0
2023-01-10T04:12:09.955Z,0
2023-01-10T04:13:12.546Z,0
2023-01-10T04:14:15.895Z,0
2023-01-10T04:15:18.339Z,0
2023-01-10T04:16:22.056Z,0
2023-01-10T04:17:25.169Z,0
2023-01-10T04:18:28.562Z,0
2023-01-10T04:19:32.600Z,0
2023-01-10T04:20:35.789Z,0
2023-01-10T04:21:38.499Z,0
2023-01-10T04:22:41.281Z,0
2023-01-10T04:23:43.560Z,0
2023-01-10T04:24:47.019Z,0
2023-01-10T04:25:50.207Z,0
2023-01-10T04:26:53.202Z,0
2023-01-10T04:27:56.320Z,0
2023-01-10T04:28:59.025Z,0
2023-01-10T04:30:02.487Z,0
2023-01-10T04:31:05.197Z,0
2023-01-10T04:32:08.325Z,0
2023-01-10T04:33:11.694Z,0
2023-01-10T04:34:14.689Z,0
2023-01-10T04:35:18.173Z,0
2023-01-10T04:36:21.241Z,0
2023-01-10T04:37:24.326Z,0
2023-01-10T04:38:27.982Z,0
2023-01-10T04:39:31.064Z,0
2023-01-10T04:40:33.827Z,0
2023-01-10T04:41:37.309Z,0
2023-01-10T04:42:40.032Z,0
2023-01-10T04:43:42.845Z,0
2023-01-10T04:44:46.267Z,0
2023-01-10T04:45:48.734Z,0
2023-01-10T04:46:52.039Z,0
2023-01-10T04:47:55.421Z,0
2023-01-10T04:48:58.247Z,0
2023-01-10T04:50:01.500Z,0
2023-01-10T04:51:05.556Z,0
2023-01-10T04:52:08.561Z,0
2023-01-10T04:53:11.342Z,0
2023-01-10T04:54:14.725Z,0
2023-01-10T04:55:17.833Z,0
2023-01-10T04:56:20.904Z,0
2023-01-10T04:57:24.377Z,0
2023-01-10T04:58:27.962Z,0
2023-01-10T04:59:31.569Z,0
2023-01-10T05:00:33.996Z,0
2023-01-10T05:01:37.342Z,0
2023-01-10T05:02:40.897Z,0
2023-01-10T05:03:45.646Z,0
2023-01-10T05:04:48.433Z,0
2023-01-10T05:05:51.877Z,0
2023-01-10T05:06:55.624Z,0
2023-01-10T05:07:59.002Z,0
2023-01-10T05:09:02.286Z,0
2023-01-10T05:10:06.136Z,0
2023-01-10T05:11:09.567Z,0
2023-01-10T05:12:13.366Z,0
2023-01-10T05:13:16.441Z,0
2023-01-10T05:14:19.801Z,0
2023-01-10T05:15:23.307Z,0
2023-01-10T05:16:25.606Z,0
2023-01-10T05:17:29.152Z,0
2023-01-10T05:18:31.594Z,0
2023-01-10T05:19:34.339Z,0
2023-01-10T05:20:37.362Z,0
2023-01-10T05:21:40.674Z,0
2023-01-10T05:22:44.217Z,0
2023-01-10T05:23:47.527Z,0
2023-01-10T05:24:51.405Z,0
2023-01-10T05:25:57.061Z,0
2023-01-10T05:26:59.830Z,0
2023-01-10T05:28:02.384Z,0
2023-01-10T05:29:05.256Z,0
2023-01-10T05:30:08.326Z,0
2023-01-10T05:31:11.334Z,0
2023-01-10T05:32:14.336Z,0
2023-01-10T05:33:17.761Z,0
2023-01-10T05:34:20.866Z,0
2023-01-10T05:35:24.574Z,0
2023-01-10T05:36:27.940Z,0
2023-01-10T05:37:30.593Z,0
2023-01-10T05:38:34.172Z,0
2023-01-10T05:39:37.593Z,0
2023-01-10T05:40:40.302Z,0
2023-01-10T05:41:43.603Z,0
2023-01-10T05:42:47.023Z,0
2023-01-10T05:43:50.400Z,0
2023-01-10T05:44:53.003Z,0
2023-01-10T05:45:56.821Z,0
2023-01-10T05:47:00.407Z,0
2023-01-10T05:48:02.916Z,0
2023-01-10T05:49:06.648Z,0
2023-01-10T05:50:09.455Z,0
2023-01-10T05:51:12.458Z,0
2023-01-10T05:52:15.239Z,0
2023-01-10T05:53:18.378Z,0
2023-01-10T05:54:21.923Z,0
2023-01-10T05:55:24.164Z,0
2023-01-10T05:56:27.187Z,0
2023-01-10T05:57:30.268Z,0
2023-01-10T05:58:33.720Z,0
2023-01-10T05:59:36.780Z,0
2023-01-10T06:00:39.889Z,0
2023-01-10T06:01:42.704Z,0
2023-01-10T06:02:45.054Z,0
2023-01-10T06:03:48.521Z,0
2023-01-10T06:04:52.231Z,0
2023-01-10T06:05:55.611Z,0
2023-01-10T06:06:58.800Z,0
2023-01-10T06:08:01.542Z,0
2023-01-10T06:09:04.569Z,0
2023-01-10T06:10:08.680Z,0
2023-01-10T06:11:12.429Z,0
2023-01-10T06:12:15.163Z,0
2023-01-10T06:13:18.215Z,0
2023-01-10T06:14:21.945Z,0
2023-01-10T06:15:25.334Z,0
2023-01-10T06:16:28.690Z,0
2023-01-10T06:17:31.259Z,0
2023-01-10T06:18:34.878Z,0
2023-01-10T06:19:37.959Z,0
2023-01-10T06:20:41.695Z,0
2023-01-10T06:21:44.430Z,0
2023-01-10T06:22:47.233Z,0
2023-01-10T06:23:50.016Z,0
2023-01-10T06:24:52.828Z,0
2023-01-10T06:25:56.305Z,0
2023-01-10T06:27:00.052Z,0
2023-01-10T06:28:02.779Z,0
2023-01-10T06:29:05.530Z,0
2023-01-10T06:30:08.825Z,0
2023-01-10T06:31:12.557Z,0
2023-01-10T06:32:16.034Z,0
2023-01-10T06:33:19.057Z,0
2023-01-10T06:34:22.591Z,0
2023-01-10T06:35:25.938Z,0
2023-01-10T06:36:28.711Z,0
2023-01-10T06:37:31.452Z,0
2023-01-10T06:38:34.883Z,0
2023-01-10T06:39:37.349Z,0
2023-01-10T06:40:40.348Z,0
2023-01-10T06:41:43.861Z,0
2023-01-10T06:42:47.515Z,0
2023-01-10T06:43:50.277Z,0
2023-01-10T06:44:54.013Z,0
2023-01-10T06:45:57.523Z,0
2023-01-10T06:47:01.254Z,0
2023-01-10T06:48:04.268Z,0
2023-01-10T06:49:07.942Z,0
2023-01-10T06:50:10.776Z,0
2023-01-10T06:51:14.135Z,0
2023-01-10T06:52:17.281Z,0
2023-01-10T06:53:19.890Z,0
2023-01-10T06:54:22.122Z,0
2023-01-10T06:55:24.857Z,4
2023-01-10T06:56:27.906Z,4
2023-01-10T06:57:31.989Z,4
2023-01-10T06:58:35.092Z,4
2023-01-10T06:59:37.537Z,4
2023-01-10T07:00:40.910Z,8
2023-01-10T07:01:43.717Z,4
2023-01-10T07:02:48.005Z,12
2023-01-10T07:03:51.388Z,12
2023-01-10T07:04:54.801Z,12
2023-01-10T07:05:58.070Z,16
2023-01-10T07:07:01.149Z,16
2023-01-10T07:08:04.232Z,20
2023-01-10T07:09:07.913Z,24
2023-01-10T07:10:11.265Z,28
2023-01-10T07:11:14.641Z,32
2023-01-10T07:12:17.673Z,36
2023-01-10T07:13:21.729Z,44
2023-01-10T07:14:25.200Z,48
2023-01-10T07:15:28.488Z,52
2023-01-10T07:16:31.932Z,56
2023-01-10T07:17:34.963Z,64
2023-01-10T07:18:38.299Z,76
2023-01-10T07:19:41.296Z,88
2023-01-10T07:20:44.971Z,108
2023-01-10T07:21:47.749Z,120
2023-01-10T07:22:51.468Z,136
2023-01-10T07:23:54.833Z,156
2023-01-10T07:24:58.208Z,176
2023-01-10T07:26:01.878Z,192
2023-01-10T07:27:04.395Z,220
2023-01-10T07:28:07.804Z,244
2023-01-10T07:29:11.600Z,268
2023-01-10T07:30:15.271Z,284
2023-01-10T07:31:18.802Z,316
2023-01-10T07:32:22.434Z,340
2023-01-10T07:33:25.499Z,340
2023-01-10T07:34:28.515Z,372
2023-01-10T07:35:31.508Z,392
2023-01-10T07:36:35.496Z,396
2023-01-10T07:37:42.341Z,392
2023-01-10T07:38:45.498Z,384
2023-01-10T07:39:48.600Z,380
2023-01-10T07:40:51.965Z,396
2023-01-10T07:41:55.249Z,408
2023-01-10T07:42:58.691Z,424
2023-01-10T07:44:01.527Z,432
2023-01-10T07:45:05.053Z,468
2023-01-10T07:46:08.486Z,460
2023-01-10T07:47:12.055Z,464
2023-01-10T07:48:15.087Z,420
2023-01-10T07:49:17.916Z,416
2023-01-10T07:50:20.954Z,444
2023-01-10T07:51:23.735Z,424
2023-01-10T07:52:27.820Z,432
2023-01-10T07:53:30.817Z,476
2023-01-10T07:54:34.177Z,540
2023-01-10T07:55:37.265Z,476
2023-01-10T07:56:40.426Z,476
2023-01-10T07:57:43.521Z,520
2023-01-10T07:58:46.857Z,716
2023-01-10T07:59:50.147Z,680
2023-01-10T08:00:53.975Z,744
2023-01-10T08:01:57.571Z,792
2023-01-10T08:03:00.756Z,920
2023-01-10T08:04:05.445Z,996
2023-01-10T08:05:08.681Z,1324
2023-01-10T08:06:11.728Z,1472
2023-01-10T08:07:18.814Z,1860
2023-01-10T08:08:22.191Z,1608
2023-01-10T08:09:25.570Z,1880
2023-01-10T08:10:28.940Z,2072
2023-01-10T08:11:32.392Z,1660
2023-01-10T08:12:34.858Z,1280
2023-01-10T08:13:38.204Z,1208
2023-01-10T08:14:41.349Z,1148
2023-01-10T08:15:45.018Z,1312
2023-01-10T08:16:49.177Z,1280
2023-01-10T08:17:52.960Z,1096
2023-01-10T08:18:56.399Z,1108
2023-01-10T08:19:59.504Z,1324
2023-01-10T08:21:02.602Z,1588
2023-01-10T08:22:05.996Z,1912
2023-01-10T08:23:09.005Z,2300
2023-01-10T08:24:11.777Z,2448
2023-01-10T08:25:14.877Z,2260
2023-01-10T08:26:18.258Z,2256
2023-01-10T08:27:21.277Z,2648
2023-01-10T08:28:24.391Z,2096
2023-01-10T08:29:27.418Z,1888
2023-01-10T08:30:31.036Z,1768
2023-01-10T08:31:34.426Z,1632
2023-01-10T08:32:38.821Z,1632
2023-01-10T08:33:42.306Z,1672
2023-01-10T08:34:45.871Z,1900
2023-01-10T08:35:48.979Z,2024
2023-01-10T08:36:52.443Z,2584
2023-01-10T08:37:55.845Z,2588
2023-01-10T08:38:59.485Z,2208
2023-01-10T08:40:02.549Z,2700
2023-01-10T08:41:05.376Z,3240
2023-01-10T08:42:08.529Z,2944
2023-01-10T08:43:11.529Z,3548
2023-01-10T08:44:14.402Z,3492
2023-01-10T08:45:17.832Z,3168
2023-01-10T08:46:21.523Z,2448
2023-01-10T08:47:25.948Z,2040
2023-01-10T08:48:30.120Z,2084
2023-01-10T08:49:33.481Z,2624
2023-01-10T08:50:36.576Z,2876
2023-01-10T08:51:40.024Z,3100
2023-01-10T08:52:43.753Z,2688
2023-01-10T08:53:46.586Z,3448
2023-01-10T08:54:49.690Z,5584
2023-01-10T08:55:53.106Z,4856
2023-01-10T08:56:56.061Z,5424
2023-01-10T08:57:59.415Z,5148
2023-01-10T08:59:03.523Z,5992
2023-01-10T09:00:06.857Z,9640
2023-01-10T09:01:09.930Z,18080
2023-01-10T09:02:14.095Z,7432
2023-01-10T09:03:17.574Z,9216
2023-01-10T09:04:21.493Z,10012
2023-01-10T09:05:28.479Z,7664
2023-01-10T09:06:31.673Z,8204
2023-01-10T09:07:35.149Z,17664
2023-01-10T09:08:38.352Z,12068
2023-01-10T09:09:42.199Z,13436
2023-01-10T09:10:44.987Z,14836
2023-01-10T09:11:48.072Z,14744
2023-01-10T09:12:51.705Z,14792
2023-01-10T09:13:55.428Z,15428
2023-01-10T09:14:58.762Z,15700
2023-01-10T09:16:02.308Z,17280
2023-01-10T09:17:05.207Z,18688
2023-01-10T09:18:09.259Z,22176
2023-01-10T09:19:12.066Z,25184
2023-01-10T09:20:15.305Z,9104
2023-01-10T09:21:19.056Z,7296
2023-01-10T09:22:22.831Z,12248
2023-01-10T09:23:26.253Z,11296
2023-01-10T09:24:29.686Z,14296
2023-01-10T09:25:32.890Z,17440
2023-01-10T09:26:36.615Z,17696
2023-01-10T09:27:39.636Z,27776
2023-01-10T09:28:42.638Z,9916
2023-01-10T09:29:45.812Z,15636
2023-01-10T09:30:48.428Z,13260
2023-01-10T09:31:51.524Z,8400
2023-01-10T09:32:54.299Z,10264
2023-01-10T09:33:57.157Z,13220
2023-01-10T09:35:00.282Z,16524
2023-01-10T09:36:04.418Z,13532
2023-01-10T09:37:09.523Z,14648
2023-01-10T09:38:12.513Z,14556
2023-01-10T09:39:16.368Z,16176
2023-01-10T09:40:19.491Z,46624
2023-01-10T09:41:23.464Z,51424
2023-01-10T09:42:26.948Z,14704
2023-01-10T09:43:30.334Z,48864
2023-01-10T09:44:33.723Z,49536
2023-01-10T09:45:37.343Z,48384
2023-01-10T09:46:40.197Z,22144
2023-01-10T09:47:43.724Z,46816
2023-01-10T09:48:46.428Z,59456
2023-01-10T09:49:50.129Z,20832
2023-01-10T09:50:53.798Z,15236
2023-01-10T09:51:59.053Z,15344
2023-01-10T09:53:02.852Z,12240
2023-01-10T09:54:11.425Z,10752
2023-01-10T09:55:16.130Z,10656
2023-01-10T09:56:19.921Z,11476
2023-01-10T09:57:23.397Z,10076
2023-01-10T09:58:26.143Z,9952
2023-01-10T09:59:29.507Z,12112
2023-01-10T10:00:33.000Z,10896
2023-01-10T10:01:35.990Z,10004
2023-01-10T10:02:39.792Z,11284
2023-01-10T10:03:43.004Z,10164
2023-01-10T10:04:47.153Z,11688
2023-01-10T10:05:50.512Z,14228
2023-01-10T10:07:15.115Z,19808
2023-01-10T10:08:17.629Z,16496
2023-01-10T10:09:20.670Z,13976
2023-01-10T10:10:24.044Z,18592
2023-01-10T10:11:27.152Z,15144
2023-01-10T10:12:30.171Z,21952
2023-01-10T10:13:33.322Z,19648
2023-01-10T10:14:36.698Z,17856
2023-01-10T10:15:40.076Z,14156
2023-01-10T10:16:43.335Z,13568
2023-01-10T10:17:46.402Z,16284
2023-01-10T10:18:49.200Z,19936
2023-01-10T10:19:52.930Z,8324
2023-01-10T10:20:55.105Z,10864
2023-01-10T10:21:58.230Z,15132
2023-01-10T10:23:02.074Z,11352
2023-01-10T10:24:05.273Z,9264
2023-01-10T10:25:08.614Z,9700
2023-01-10T10:26:12.020Z,12376
2023-01-10T10:27:15.177Z,11740
2023-01-10T10:28:18.560Z,12984
2023-01-10T10:29:22.219Z,11472
2023-01-10T10:30:25.958Z,12160
2023-01-10T10:31:29.168Z,9748
2023-01-10T10:32:32.104Z,6852
2023-01-10T10:33:34.879Z,10808
2023-01-10T10:34:38.193Z,17160
2023-01-10T10:35:41.456Z,15080
2023-01-10T10:36:45.230Z,12588
2023-01-10T10:37:48.611Z,10396
2023-01-10T10:38:52.471Z,9560
2023-01-10T10:39:55.522Z,25536
2023-01-10T10:40:58.948Z,8416
2023-01-10T10:42:02.702Z,9444
2023-01-10T10:43:06.115Z,9216
2023-01-10T10:44:09.195Z,8708
2023-01-10T10:45:15.019Z,6864
2023-01-10T10:46:18.067Z,8352
2023-01-10T10:47:21.398Z,9332
2023-01-10T10:48:24.575Z,9484
2023-01-10T10:49:28.311Z,6472
2023-01-10T10:50:31.003Z,6128
2023-01-10T10:51:34.649Z,4824
2023-01-10T10:52:38.142Z,5392
2023-01-10T10:53:40.915Z,5004
2023-01-10T10:54:46.957Z,4240
2023-01-10T10:55:51.322Z,4852
2023-01-10T10:56:54.302Z,5668
2023-01-10T10:58:00.657Z,6352
2023-01-10T10:59:04.048Z,7092
2023-01-10T11:00:07.473Z,7256
2023-01-10T11:01:10.914Z,7688
2023-01-10T11:02:14.755Z,8516
2023-01-10T11:03:17.907Z,11080
2023-01-10T11:04:21.202Z,13696
2023-01-10T11:05:24.726Z,20864
2023-01-10T11:06:28.001Z,18624
2023-01-10T11:07:31.197Z,18304
2023-01-10T11:08:34.060Z,14840
2023-01-10T11:09:36.934Z,14356
2023-01-10T11:10:42.009Z,13980
2023-01-10T11:11:45.303Z,12964
2023-01-10T11:12:48.558Z,10648
2023-01-10T11:13:51.693Z,9956
2023-01-10T11:14:55.720Z,9720
2023-01-10T11:15:58.962Z,7800
2023-01-10T11:17:02.895Z,7080
2023-01-10T11:18:05.358Z,5128
2023-01-10T11:19:08.374Z,4904
2023-01-10T11:20:11.532Z,5008
2023-01-10T11:21:14.402Z,4768
2023-01-10T11:22:18.131Z,4796
2023-01-10T11:23:21.204Z,4228
2023-01-10T11:24:24.279Z,3968
2023-01-10T11:25:27.362Z,3840
2023-01-10T11:26:31.437Z,4132
2023-01-10T11:27:34.467Z,4192
2023-01-10T11:28:37.904Z,4880
2023-01-10T11:29:40.913Z,4232
2023-01-10T11:30:44.382Z,4828
2023-01-10T11:31:47.420Z,4100
2023-01-10T11:32:51.731Z,3892
2023-01-10T11:33:55.112Z,4412
2023-01-10T11:37:55.680Z,4488
2023-01-10T11:38:58.711Z,5572
2023-01-10T11:40:02.498Z,5312
2023-01-10T11:41:05.572Z,5744
2023-01-10T11:42:09.737Z,4704
2023-01-10T11:43:12.840Z,5516
2023-01-10T11:44:15.420Z,6056
2023-01-10T11:45:18.828Z,6240
2023-01-10T11:46:22.855Z,5536
2023-01-10T11:47:29.796Z,6020
2023-01-10T11:50:20.949Z,6040
2023-01-10T11:51:24.390Z,6480
2023-01-10T11:52:28.035Z,6480
2023-01-10T11:53:30.810Z,5608
2023-01-10T11:54:34.518Z,7888
2023-01-10T11:55:38.013Z,6960
2023-01-10T11:56:41.844Z,6372
2023-01-10T11:57:46.238Z,6140
2023-01-10T11:58:49.247Z,6208
2023-01-10T11:59:52.920Z,7432
2023-01-10T12:00:58.717Z,7532
2023-01-10T12:02:02.167Z,5240
2023-01-10T12:03:06.308Z,4628
2023-01-10T12:04:09.656Z,6192
2023-01-10T12:05:12.416Z,5500
2023-01-10T12:06:15.469Z,6584
2023-01-10T12:07:18.363Z,6232
2023-01-10T12:08:22.089Z,5068
2023-01-10T12:09:25.264Z,4348
2023-01-10T12:10:28.356Z,3256
2023-01-10T12:11:31.442Z,3412
2023-01-10T12:12:35.140Z,2996
2023-01-10T12:13:39.189Z,3372
2023-01-10T12:14:42.577Z,2480
2023-01-10T12:15:46.279Z,2260
2023-01-10T12:16:49.445Z,1776
2023-01-10T12:17:53.279Z,2300
2023-01-10T12:18:56.059Z,2100
2023-01-10T12:19:59.410Z,2044
2023-01-10T12:21:02.725Z,2240
2023-01-10T12:22:05.848Z,2916
2023-01-10T12:23:09.260Z,3040
2023-01-10T12:24:12.567Z,3160
2023-01-10T12:25:15.284Z,2832
2023-01-10T12:26:19.135Z,2952
2023-01-10T12:27:22.565Z,2656
2023-01-10T12:28:25.549Z,2948
2023-01-10T12:29:29.415Z,2620
2023-01-10T12:30:32.963Z,2512
2023-01-10T12:31:36.787Z,2264
2023-01-10T12:32:39.882Z,2164
2023-01-10T12:33:43.273Z,1972
2023-01-10T12:34:46.959Z,1968
2023-01-10T12:35:50.328Z,2096
2023-01-10T12:36:53.697Z,2060
2023-01-10T12:37:57.179Z,2056
2023-01-10T12:38:59.982Z,1944
2023-01-10T12:40:02.714Z,2064
2023-01-10T12:41:06.154Z,2340
2023-01-10T12:42:09.495Z,2064
2023-01-10T12:43:12.516Z,2340
2023-01-10T12:44:15.597Z,2792
2023-01-10T12:45:19.463Z,2348
2023-01-10T12:46:38.396Z,3124
2023-01-10T12:48:16.510Z,2628
2023-01-10T12:49:19.952Z,2576
2023-01-10T12:50:23.628Z,2220
2023-01-10T12:51:27.406Z,2376
2023-01-10T12:52:30.762Z,2340
2023-01-10T12:53:34.262Z,2020
2023-01-10T12:54:37.033Z,2460
2023-01-10T12:55:40.797Z,2216
2023-01-10T12:56:44.384Z,1992
2023-01-10T12:57:50.922Z,2208
2023-01-10T12:58:55.597Z,2120
2023-01-10T12:59:58.635Z,1984
2023-01-10T13:01:02.960Z,2204
2023-01-10T13:02:07.102Z,1964
2023-01-10T13:03:11.423Z,2016
2023-01-10T13:04:14.892Z,2236
2023-01-10T13:05:18.785Z,2244
2023-01-10T13:06:22.754Z,2144
2023-01-10T13:07:26.914Z,2104
2023-01-10T13:08:30.920Z,2172
2023-01-10T13:09:34.696Z,2028
2023-01-10T13:10:37.494Z,1944
2023-01-10T13:11:40.502Z,1860
2023-01-10T13:12:43.681Z,1788
2023-01-10T13:13:48.986Z,1808
2023-01-10T13:14:55.722Z,1764
2023-01-10T13:15:58.733Z,1600
2023-01-10T13:17:02.989Z,1560
2023-01-10T13:18:06.078Z,1584
2023-01-10T13:19:09.229Z,1480
2023-01-10T13:20:12.712Z,1480
2023-01-10T13:21:15.771Z,1428
2023-01-10T13:22:19.437Z,1476
2023-01-10T13:23:22.994Z,1384
2023-01-10T13:24:26.721Z,1736
2023-01-10T13:25:30.149Z,1992
2023-01-10T13:26:34.157Z,1960
2023-01-10T13:27:37.391Z,2456
2023-01-10T13:28:40.467Z,2940
2023-01-10T13:29:43.873Z,2696
2023-01-10T13:30:47.335Z,2340
2023-01-10T13:31:50.962Z,2460
2023-01-10T13:32:54.824Z,2424
2023-01-10T13:33:58.061Z,2228
2023-01-10T13:35:01.471Z,2000
2023-01-10T13:36:04.885Z,1768
2023-01-10T13:37:08.388Z,1924
2023-01-10T13:38:11.930Z,2008
2023-01-10T13:39:14.710Z,2220
2023-01-10T13:40:18.199Z,2224
2023-01-10T13:41:21.596Z,2328
2023-01-10T13:42:25.720Z,2508
2023-01-10T13:43:28.769Z,2332
2023-01-10T13:44:31.942Z,1940
2023-01-10T13:45:36.107Z,1660
2023-01-10T13:46:39.911Z,1300
2023-01-10T13:47:43.120Z,1264
2023-01-10T13:48:47.208Z,1108
2023-01-10T13:49:50.342Z,1272
2023-01-10T13:50:54.147Z,1336
2023-01-10T13:51:57.535Z,1452
2023-01-10T13:53:00.932Z,1348
2023-01-10T13:54:04.733Z,1236
2023-01-10T13:55:08.202Z,1192
2023-01-10T13:56:11.560Z,1388
2023-01-10T13:57:13.464Z,1468
2023-01-10T13:58:17.070Z,1352
2023-01-10T13:59:20.331Z,1412
2023-01-10T14:00:24.579Z,1640
2023-01-10T14:01:28.854Z,1620
2023-01-10T14:02:33.529Z,1504
2023-01-10T14:03:37.766Z,1312
2023-01-10T14:04:42.526Z,1408
2023-01-10T14:05:46.108Z,1396
2023-01-10T14:06:49.410Z,1900
2023-01-10T14:07:52.827Z,1920
2023-01-10T14:08:55.981Z,1960
2023-01-10T14:10:00.067Z,2120
2023-01-10T14:11:07.622Z,1760
2023-01-10T14:12:11.705Z,1292
2023-01-10T14:13:15.510Z,1072
2023-01-10T14:14:19.600Z,908
2023-01-10T14:15:22.772Z,956
2023-01-10T14:16:26.359Z,852
2023-01-10T14:17:29.709Z,784
2023-01-10T14:18:32.613Z,792
2023-01-10T14:19:36.412Z,780
2023-01-10T14:20:40.508Z,696
2023-01-10T14:21:45.628Z,576
2023-01-10T14:22:49.425Z,524
2023-01-10T14:23:52.909Z,556
2023-01-10T14:24:56.595Z,676
2023-01-10T14:26:00.058Z,772
2023-01-10T14:27:04.157Z,764
2023-01-10T14:28:08.571Z,856
2023-01-10T14:29:12.158Z,964
2023-01-10T14:30:16.650Z,972
2023-01-10T14:31:21.629Z,988
2023-01-10T14:32:25.820Z,1040
2023-01-10T14:33:29.867Z,1000
2023-01-10T14:34:34.480Z,888
2023-01-10T14:35:38.243Z,732
2023-01-10T14:36:42.996Z,764
2023-01-10T14:37:46.152Z,864
2023-01-10T14:38:49.805Z,840
2023-01-10T14:39:52.984Z,840
2023-01-10T14:40:57.027Z,792
2023-01-10T14:42:00.448Z,672
2023-01-10T14:43:04.008Z,672
2023-01-10T14:44:07.727Z,636
2023-01-10T14:45:14.818Z,596
2023-01-10T14:46:17.915Z,612
2023-01-10T14:47:21.150Z,556
2023-01-10T14:48:24.606Z,548
2023-01-10T14:49:27.991Z,480
2023-01-10T14:50:31.147Z,424
2023-01-10T14:51:35.051Z,408
2023-01-10T14:52:38.654Z,384
2023-01-10T14:53:42.352Z,360